Time;durP1;ratioP1;P1;durP2;ratioP2;P2;SDS_P1;SDS_P2;PMS_P1;PMS_P2;Temp;Humidity;BMP_temperature;BMP_pressure;BME280_temperature;BME280_humidity;BME280_pressure;Samples;Min_cycle;Max_cycle;Signal;HPM_P1;HPM_P2
2022/04/19 00:01:43;;;;;;;8.85;5.50;;;10.90;90.50;;;;;;5070403;28;20082;-63
2022/04/19 00:04:08;;;;;;;9.48;6.00;;;10.90;89.80;;;;;;5071957;28;20067;-64
2022/04/19 00:06:35;;;;;;;7.82;5.65;;;10.90;90.00;;;;;;5071935;28;20044;-63
2022/04/19 00:09:02;;;;;;;9.75;6.50;;;10.90;90.40;;;;;;5071386;28;20462;-63
2022/04/19 00:11:28;;;;;;;11.10;6.03;;;10.80;89.60;;;;;;5071589;28;20591;-64
2022/04/19 00:13:53;;;;;;;10.32;6.90;;;10.80;89.60;;;;;;5070183;28;20080;-62
2022/04/19 00:16:19;;;;;;;9.07;6.53;;;10.70;89.50;;;;;;5071848;28;20048;-62
2022/04/19 00:18:45;;;;;;;10.63;6.70;;;10.60;89.90;;;;;;5071183;28;20049;-63
2022/04/19 00:21:10;;;;;;;10.93;6.18;;;10.60;90.60;;;;;;5053792;28;20051;-63
2022/04/19 00:23:36;;;;;;;10.05;6.25;;;10.60;90.10;;;;;;5070349;28;20044;-64
2022/04/19 00:26:03;;;;;;;10.10;6.55;;;10.60;90.50;;;;;;5071076;28;20161;-63
2022/04/19 00:28:29;;;;;;;9.23;6.68;;;10.60;90.60;;;;;;5070042;28;20048;-63
2022/04/19 00:30:54;;;;;;;9.63;6.05;;;10.50;91.80;;;;;;5069563;28;20040;-63
2022/04/19 00:33:20;;;;;;;10.95;6.55;;;10.50;91.30;;;;;;5071330;28;20482;-63
2022/04/19 00:35:46;;;;;;;10.50;6.90;;;10.50;91.30;;;;;;5069603;28;20051;-63
2022/04/19 00:38:12;;;;;;;11.50;6.57;;;10.50;91.20;;;;;;5069770;28;20056;-63
2022/04/19 00:40:37;;;;;;;9.20;6.47;;;10.50;91.60;;;;;;5071294;28;20131;-62
2022/04/19 00:43:04;;;;;;;9.95;6.57;;;10.40;93.10;;;;;;5069776;28;20049;-62
2022/04/19 00:45:34;;;;;;;10.93;6.30;;;10.40;92.80;;;;;;5071283;28;20114;-62
2022/04/19 00:48:01;;;;;;;9.57;5.93;;;10.40;93.20;;;;;;5069743;28;20043;-64
2022/04/19 00:50:28;;;;;;;10.88;6.50;;;10.30;93.90;;;;;;5069372;28;20126;-63
2022/04/19 00:52:55;;;;;;;9.18;6.60;;;10.30;94.00;;;;;;5070721;28;20044;-63
2022/04/19 00:55:21;;;;;;;12.68;6.70;;;10.20;95.90;;;;;;5053510;28;20060;-63
2022/04/19 00:57:47;;;;;;;9.90;6.78;;;10.30;96.30;;;;;;5069329;28;20406;-63
2022/04/19 01:00:14;;;;;;;12.82;6.85;;;10.20;97.10;;;;;;5071046;28;20052;-64
2022/04/19 01:02:40;;;;;;;9.90;6.75;;;10.20;97.30;;;;;;5069792;28;20044;-63
2022/04/19 01:05:06;;;;;;;11.25;7.03;;;10.10;97.80;;;;;;5070521;28;20119;-62
2022/04/19 01:07:33;;;;;;;10.45;6.90;;;10.10;98.20;;;;;;5071231;28;20553;-64
2022/04/19 01:09:59;;;;;;;10.95;7.20;;;10.10;98.30;;;;;;5069468;28;20049;-62
2022/04/19 01:15:11;;;;;;;11.55;7.50;;;9.80;98.60;;;;;;5070754;28;20045;-63
2022/04/19 01:17:39;;;;;;;9.65;6.68;;;9.80;98.60;;;;;;5070994;28;20056;-63
2022/04/19 01:20:10;;;;;;;10.50;6.93;;;9.70;98.30;;;;;;5070389;28;20040;-63
2022/04/19 01:22:37;;;;;;;10.15;6.60;;;9.60;98.00;;;;;;5052927;28;20052;-64
2022/04/19 01:25:03;;;;;;;10.40;6.80;;;9.50;97.60;;;;;;5070317;28;20088;-64
2022/04/19 01:27:29;;;;;;;11.73;6.97;;;9.50;97.80;;;;;;5070323;28;20149;-64
2022/04/19 01:30:00;;;;;;;10.68;7.38;;;9.50;99.90;;;;;;5068846;28;20506;-64
2022/04/19 01:32:28;;;;;;;11.32;7.43;;;9.40;99.90;;;;;;5071287;28;20386;-64
2022/04/19 01:35:12;;;;;;;9.90;6.60;;;9.50;99.80;;;;;;5070354;28;20059;-61
2022/04/19 01:37:40;;;;;;;12.02;7.40;;;9.40;99.90;;;;;;5069488;28;20049;-62
2022/04/19 01:40:19;;;;;;;16.45;7.75;;;9.40;99.90;;;;;;5069795;28;20037;-62
2022/04/19 01:42:54;;;;;;;11.45;7.07;;;9.40;99.90;;;;;;5070897;28;20044;-62
2022/04/19 01:45:25;;;;;;;11.98;7.30;;;9.40;99.90;;;;;;5069190;28;20131;-62
2022/04/19 01:47:55;;;;;;;11.10;7.00;;;9.30;99.90;;;;;;5069222;28;20083;-63
2022/04/19 01:50:22;;;;;;;12.23;8.25;;;9.30;99.90;;;;;;5070714;28;20040;-62
2022/04/19 01:52:49;;;;;;;11.13;7.13;;;9.30;99.90;;;;;;5052588;28;20135;-63
2022/04/19 01:55:17;;;;;;;13.48;7.43;;;9.30;99.90;;;;;;5069825;28;20040;-62
2022/04/19 01:57:50;;;;;;;11.05;7.53;;;9.20;99.90;;;;;;5070904;28;20078;-63
2022/04/19 02:00:17;;;;;;;12.07;7.03;;;9.20;99.90;;;;;;5071179;28;20052;-63
2022/04/19 02:02:44;;;;;;;13.95;6.80;;;9.20;99.90;;;;;;5056405;28;20059;-64
2022/04/19 02:05:11;;;;;;;12.77;7.47;;;9.20;99.90;;;;;;5072955;28;20080;-63
2022/04/19 02:07:44;;;;;;;11.32;7.20;;;9.20;99.90;;;;;;5073196;28;20054;-63
2022/04/19 02:10:12;;;;;;;9.60;6.57;;;9.10;99.90;;;;;;5072675;28;20498;-63
2022/04/19 02:12:41;;;;;;;11.90;7.32;;;9.10;99.90;;;;;;5073815;28;20044;-63
2022/04/19 02:15:07;;;;;;;10.00;6.90;;;9.10;99.90;;;;;;5073661;28;20110;-63
2022/04/19 02:17:33;;;;;;;10.60;6.85;;;9.10;99.90;;;;;;5073913;28;20052;-63
2022/04/19 02:20:05;;;;;;;10.90;7.18;;;9.20;99.90;;;;;;5072241;28;20048;-63
2022/04/19 02:22:32;;;;;;;11.77;6.82;;;9.10;99.90;;;;;;5072463;28;20050;-63
2022/04/19 02:24:59;;;;;;;10.73;7.60;;;9.00;99.90;;;;;;5072686;28;20086;-63
2022/04/19 02:27:25;;;;;;;9.85;6.40;;;9.00;99.90;;;;;;5056005;28;20106;-63
2022/04/19 02:29:51;;;;;;;12.13;7.40;;;8.90;99.90;;;;;;5073607;28;20045;-63
2022/04/19 02:32:17;;;;;;;8.93;6.78;;;8.90;99.90;;;;;;5073369;28;20221;-63
2022/04/19 02:34:43;;;;;;;10.35;6.75;;;8.80;99.90;;;;;;5073660;28;20045;-63
2022/04/19 02:37:10;;;;;;;11.77;6.80;;;8.80;99.90;;;;;;5073043;28;20197;-63
2022/04/19 02:39:36;;;;;;;9.93;6.78;;;8.80;99.90;;;;;;5073408;28;20143;-64
2022/04/19 02:42:06;;;;;;;11.02;7.38;;;8.80;99.90;;;;;;5073050;28;20490;-62
2022/04/19 02:44:32;;;;;;;11.10;6.85;;;8.80;99.90;;;;;;5073510;28;20052;-62
2022/04/19 02:46:58;;;;;;;9.15;6.60;;;8.80;99.90;;;;;;5073264;28;20501;-63
2022/04/19 02:49:24;;;;;;;11.13;6.78;;;8.80;99.90;;;;;;5073223;28;20045;-63
2022/04/19 02:51:50;;;;;;;10.35;6.80;;;8.80;99.90;;;;;;5073521;28;20047;-62
2022/04/19 02:54:18;;;;;;;12.07;6.65;;;8.80;99.90;;;;;;5073065;28;20470;-63
2022/04/19 02:56:44;;;;;;;8.65;6.60;;;8.70;99.90;;;;;;5073501;28;20055;-64
2022/04/19 02:59:10;;;;;;;11.02;6.75;;;8.60;99.90;;;;;;5071691;28;20123;-62
2022/04/19 03:01:36;;;;;;;10.65;7.05;;;8.70;99.90;;;;;;5072354;28;20037;-62
2022/04/19 03:04:02;;;;;;;10.15;6.35;;;8.60;99.90;;;;;;5073203;28;20079;-63
2022/04/19 03:06:27;;;;;;;10.50;7.00;;;8.60;99.90;;;;;;5073515;28;20514;-62
2022/04/19 03:08:53;;;;;;;11.50;7.03;;;8.60;99.90;;;;;;5072357;28;20056;-63
2022/04/19 03:11:19;;;;;;;10.73;6.53;;;8.50;99.90;;;;;;5072868;28;20047;-63
2022/04/19 03:13:45;;;;;;;9.18;6.70;;;8.50;99.90;;;;;;5071336;28;20041;-62
2022/04/19 03:16:13;;;;;;;9.75;6.07;;;8.50;99.90;;;;;;5071552;28;20080;-62
2022/04/19 03:18:42;;;;;;;9.40;6.40;;;8.40;99.90;;;;;;5073192;28;20056;-63
2022/04/19 03:21:12;;;;;;;13.25;7.28;;;8.40;99.90;;;;;;5071359;28;20047;-63
2022/04/19 03:29:08;;;;;;;9.30;6.65;;;8.30;99.90;;;;;;5072674;28;20143;-63
2022/04/19 03:31:34;;;;;;;9.52;6.22;;;8.30;99.90;;;;;;5072742;28;20053;-63
2022/04/19 03:34:01;;;;;;;9.15;6.68;;;8.30;99.90;;;;;;5072845;28;20048;-63
2022/04/19 03:36:27;;;;;;;9.90;6.53;;;8.20;99.90;;;;;;5072434;28;20040;-63
2022/04/19 03:38:55;;;;;;;14.85;7.03;;;8.20;99.90;;;;;;5072652;28;20164;-63
2022/04/19 03:41:21;;;;;;;10.32;6.95;;;8.20;99.90;;;;;;5072264;28;20047;-63
2022/04/19 03:43:47;;;;;;;9.23;6.53;;;8.10;99.90;;;;;;5055002;28;20052;-63
2022/04/19 03:46:13;;;;;;;10.07;6.65;;;8.20;99.90;;;;;;5072232;28;20040;-63
2022/04/19 03:48:39;;;;;;;12.10;6.68;;;8.10;99.90;;;;;;5071602;28;20068;-63
2022/04/19 03:51:04;;;;;;;9.40;6.78;;;8.10;99.90;;;;;;5072369;28;20036;-62
2022/04/19 03:53:31;;;;;;;12.35;8.00;;;8.10;99.90;;;;;;5072082;28;20093;-62
2022/04/19 03:55:58;;;;;;;13.27;7.35;;;8.10;99.90;;;;;;5070978;28;20046;-62
2022/04/19 03:58:27;;;;;;;12.18;6.97;;;8.00;99.90;;;;;;5071763;28;20145;-62
2022/04/19 04:00:54;;;;;;;9.57;6.55;;;8.00;99.90;;;;;;5071714;28;20478;-62
2022/04/19 04:03:20;;;;;;;11.25;6.95;;;8.00;99.90;;;;;;5071701;28;20505;-63
2022/04/19 04:05:46;;;;;;;11.60;7.03;;;8.00;99.90;;;;;;5072170;28;20122;-62
2022/04/19 04:08:12;;;;;;;10.30;7.50;;;7.90;99.90;;;;;;5071735;28;20048;-63
2022/04/19 04:10:37;;;;;;;10.77;7.00;;;7.90;99.90;;;;;;5072072;28;20083;-63
2022/04/19 04:13:04;;;;;;;10.70;6.70;;;7.90;99.90;;;;;;5070901;28;20052;-63
2022/04/19 04:15:30;;;;;;;11.32;6.93;;;7.80;99.90;;;;;;5053989;28;20120;-63
2022/04/19 04:17:55;;;;;;;10.68;7.72;;;7.80;99.90;;;;;;5070924;28;20088;-63
2022/04/19 04:20:21;;;;;;;10.38;6.75;;;7.80;99.90;;;;;;5053965;28;20060;-63
2022/04/19 04:22:47;;;;;;;11.48;7.10;;;7.80;99.90;;;;;;5072184;28;20094;-63
2022/04/19 04:25:13;;;;;;;10.50;7.10;;;7.70;99.90;;;;;;5070089;28;20559;-63
2022/04/19 04:27:38;;;;;;;12.32;7.03;;;7.70;99.90;;;;;;5070455;28;20059;-62
2022/04/19 04:30:06;;;;;;;10.85;6.80;;;7.70;99.90;;;;;;5070184;28;20044;-63
2022/04/19 04:32:32;;;;;;;12.35;7.07;;;7.70;99.90;;;;;;5070056;28;20088;-63
2022/04/19 04:34:58;;;;;;;13.00;7.57;;;7.80;99.90;;;;;;5071289;28;20045;-63
2022/04/19 04:37:24;;;;;;;13.57;8.00;;;7.60;99.90;;;;;;5069778;28;20064;-63
2022/04/19 04:39:49;;;;;;;13.73;7.72;;;7.60;99.90;;;;;;5071532;28;20120;-62
2022/04/19 04:42:15;;;;;;;13.23;8.07;;;7.60;99.90;;;;;;5069978;28;20436;-63
2022/04/19 04:44:41;;;;;;;12.73;7.25;;;7.50;99.90;;;;;;5071643;28;20049;-62
2022/04/19 04:49:52;;;;;;;11.38;7.57;;;7.50;99.90;;;;;;5071639;28;20060;-62
2022/04/19 04:52:21;;;;;;;13.30;8.13;;;7.60;99.90;;;;;;5069965;28;20052;-64
2022/04/19 04:54:46;;;;;;;11.20;7.95;;;7.60;99.90;;;;;;5070226;28;20102;-63
2022/04/19 04:57:12;;;;;;;12.95;7.95;;;7.50;99.90;;;;;;5070322;28;20139;-62
2022/04/19 04:59:38;;;;;;;13.45;7.75;;;7.60;99.90;;;;;;5070886;28;20504;-62
2022/04/19 05:02:04;;;;;;;13.90;7.95;;;7.60;99.90;;;;;;5071284;28;20044;-63
2022/04/19 05:04:32;;;;;;;13.75;7.88;;;7.60;99.90;;;;;;5069486;28;20070;-64
2022/04/19 05:06:59;;;;;;;12.70;8.05;;;7.60;99.90;;;;;;5071080;28;20056;-62
2022/04/19 05:09:24;;;;;;;12.57;7.90;;;7.60;99.90;;;;;;5052873;28;20041;-63
2022/04/19 05:11:53;;;;;;;12.15;7.38;;;7.60;99.90;;;;;;5053459;28;20044;-62
2022/04/19 05:14:19;;;;;;;12.65;8.00;;;7.70;99.90;;;;;;5069632;28;20501;-63
2022/04/19 05:16:46;;;;;;;13.13;8.32;;;7.70;99.90;;;;;;5069983;28;20084;-63
2022/04/19 05:19:12;;;;;;;13.23;7.97;;;7.80;99.90;;;;;;5070988;28;20085;-63
2022/04/19 05:21:38;;;;;;;12.02;7.93;;;7.80;99.90;;;;;;5070240;28;20048;-63
2022/04/19 05:24:08;;;;;;;14.40;7.25;;;7.90;99.90;;;;;;5069722;28;20040;-63
2022/04/19 05:26:34;;;;;;;14.52;7.50;;;8.00;99.90;;;;;;5069611;28;20044;-63
2022/04/19 05:29:00;;;;;;;11.95;6.80;;;8.20;99.90;;;;;;5070965;28;20103;-63
2022/04/19 05:31:26;;;;;;;14.13;7.80;;;8.70;99.90;;;;;;5070361;28;20124;-63
2022/04/19 05:33:52;;;;;;;11.82;7.72;;;9.60;99.90;;;;;;5052932;28;20045;-63
2022/04/19 05:36:18;;;;;;;11.90;6.28;;;10.40;99.90;;;;;;5071592;28;20056;-63
2022/04/19 05:38:44;;;;;;;13.65;7.13;;;11.30;99.90;;;;;;5072873;28;20609;-63
2022/04/19 05:41:12;;;;;;;12.18;7.43;;;12.00;99.90;;;;;;5073372;28;20052;-63
2022/04/19 05:43:38;;;;;;;10.65;7.15;;;12.60;99.90;;;;;;5074296;28;20045;-64
2022/04/19 05:46:04;;;;;;;12.75;7.60;;;13.30;99.90;;;;;;5073845;28;20363;-63
2022/04/19 05:48:30;;;;;;;11.48;7.07;;;13.90;99.90;;;;;;5072952;28;20080;-63
2022/04/19 05:50:55;;;;;;;12.40;7.03;;;14.40;99.90;;;;;;5073445;28;20043;-63
2022/04/19 05:53:21;;;;;;;9.50;5.85;;;14.90;99.90;;;;;;5056721;28;20068;-63
2022/04/19 05:55:47;;;;;;;11.07;6.15;;;15.20;98.60;;;;;;5073911;28;20135;-63
2022/04/19 05:58:13;;;;;;;12.35;7.05;;;15.20;96.60;;;;;;5074506;28;20045;-63
2022/04/19 06:00:39;;;;;;;10.98;6.75;;;15.40;95.90;;;;;;5073933;28;20041;-64
2022/04/19 06:05:49;;;;;;;11.02;6.95;;;16.10;96.10;;;;;;5074120;28;20040;-64
2022/04/19 06:08:15;;;;;;;10.75;6.53;;;16.50;95.30;;;;;;5074512;28;20478;-64
2022/04/19 06:10:41;;;;;;;12.13;7.25;;;16.60;94.10;;;;;;5073741;28;20051;-63
2022/04/19 06:13:07;;;;;;;11.45;7.43;;;16.70;92.20;;;;;;5074286;28;20048;-63
2022/04/19 06:15:33;;;;;;;11.10;6.97;;;17.00;92.80;;;;;;5073651;28;20059;-63
2022/04/19 06:17:59;;;;;;;12.85;7.18;;;17.40;92.30;;;;;;5074222;28;20059;-63
2022/04/19 06:20:25;;;;;;;11.65;6.70;;;17.70;91.10;;;;;;5073892;28;20493;-64
2022/04/19 06:22:51;;;;;;;10.65;6.90;;;18.00;91.60;;;;;;5072300;28;20048;-64
2022/04/19 06:25:17;;;;;;;10.68;6.57;;;18.40;89.00;;;;;;5074042;28;20052;-63
2022/04/19 06:27:43;;;;;;;10.60;6.53;;;18.90;89.40;;;;;;5072440;28;20508;-63
2022/04/19 06:30:09;;;;;;;9.98;7.03;;;19.10;87.20;;;;;;5056091;28;20109;-64
2022/04/19 06:32:35;;;;;;;8.82;6.32;;;19.10;85.70;;;;;;5073674;28;20464;-63
2022/04/19 06:35:01;;;;;;;12.68;6.95;;;19.20;81.90;;;;;;5056183;28;20136;-63
2022/04/19 06:37:28;;;;;;;10.75;6.80;;;19.50;81.80;;;;;;5072687;28;20053;-64
2022/04/19 06:39:54;;;;;;;16.60;7.20;;;19.90;86.30;;;;;;5073481;28;20052;-63
2022/04/19 06:42:20;;;;;;;11.18;6.32;;;20.30;82.30;;;;;;5073453;28;20045;-64
2022/04/19 06:44:45;;;;;;;12.18;6.40;;;20.40;77.70;;;;;;5072371;28;20057;-64
2022/04/19 06:47:11;;;;;;;10.00;6.03;;;20.60;80.20;;;;;;5072727;28;20387;-64
2022/04/19 06:49:38;;;;;;;11.45;6.38;;;20.90;78.60;;;;;;5073335;28;20040;-64
2022/04/19 06:52:06;;;;;;;8.40;6.00;;;21.10;77.80;;;;;;5072289;28;20482;-64
2022/04/19 06:54:32;;;;;;;8.13;5.95;;;21.40;77.00;;;;;;5072145;28;20410;-64
2022/04/19 06:56:58;;;;;;;14.90;6.00;;;21.50;75.90;;;;;;5073390;28;20083;-63
2022/04/19 06:59:25;;;;;;;12.20;5.32;;;21.30;74.70;;;;;;5073475;28;20083;-64
2022/04/19 07:01:51;;;;;;;7.70;5.40;;;21.20;74.00;;;;;;5071890;28;20052;-63
2022/04/19 07:04:17;;;;;;;8.52;5.28;;;21.30;74.60;;;;;;5072147;28;20397;-65
2022/04/19 07:06:43;;;;;;;8.40;4.93;;;21.40;73.70;;;;;;5071871;28;20041;-64
2022/04/19 07:09:08;;;;;;;10.57;5.35;;;21.50;73.20;;;;;;5071926;28;20071;-64
2022/04/19 07:11:36;;;;;;;6.95;5.03;;;21.60;73.00;;;;;;5072927;28;20039;-65
2022/04/19 07:14:03;;;;;;;7.00;4.75;;;21.60;71.40;;;;;;5071576;28;20126;-64
2022/04/19 07:16:29;;;;;;;7.65;4.97;;;21.60;70.50;;;;;;5073081;28;20479;-63
2022/04/19 07:18:54;;;;;;;7.93;5.05;;;21.60;70.60;;;;;;5072750;28;20051;-64
2022/04/19 07:26:49;;;;;;;13.13;6.70;;;22.50;70.70;;;;;;5072481;28;20112;-64
2022/04/19 07:29:18;;;;;;;14.27;6.45;;;22.70;69.70;;;;;;5072663;28;20040;-64
2022/04/19 07:31:48;;;;;;;8.60;5.50;;;23.10;69.50;;;;;;5071447;28;20044;-64
2022/04/19 07:34:14;;;;;;;6.78;4.85;;;23.20;69.90;;;;;;5072403;28;20040;-64
2022/04/19 07:36:41;;;;;;;6.90;4.50;;;23.30;69.20;;;;;;5071346;28;20040;-64
2022/04/19 07:39:11;;;;;;;7.28;4.78;;;23.10;68.80;;;;;;5072119;28;20056;-65
2022/04/19 07:41:37;;;;;;;7.95;4.85;;;23.10;67.90;;;;;;5071425;28;20047;-64
2022/04/19 07:44:10;;;;;;;5.43;4.25;;;23.20;67.40;;;;;;5072445;28;20056;-64
2022/04/19 07:46:36;;;;;;;6.63;4.20;;;23.30;66.50;;;;;;5071314;28;20051;-64
2022/04/19 07:49:03;;;;;;;5.72;4.32;;;23.60;65.80;;;;;;5070972;28;20044;-65
2022/04/19 07:51:29;;;;;;;6.53;4.35;;;23.70;65.80;;;;;;5071439;28;20052;-64
2022/04/19 07:53:55;;;;;;;8.75;4.20;;;23.80;64.40;;;;;;5070641;28;20118;-64
2022/04/19 07:56:21;;;;;;;7.13;4.18;;;23.70;63.80;;;;;;5072358;28;20048;-64
2022/04/19 07:58:47;;;;;;;7.45;4.47;;;23.60;64.20;;;;;;5071864;28;20044;-63
2022/04/19 08:01:18;;;;;;;6.55;4.00;;;23.50;63.60;;;;;;5071172;28;20082;-63
2022/04/19 08:03:44;;;;;;;5.68;3.83;;;23.70;62.90;;;;;;5054081;28;20051;-66
2022/04/19 08:06:09;;;;;;;6.40;4.13;;;24.00;62.90;;;;;;5072157;28;20052;-64
2022/04/19 08:08:36;;;;;;;6.50;3.90;;;24.10;61.80;;;;;;5070562;28;20529;-62
2022/04/19 08:11:03;;;;;;;6.65;3.90;;;24.10;61.60;;;;;;5053702;28;20055;-64
2022/04/19 08:13:29;;;;;;;5.72;3.55;;;24.10;60.20;;;;;;5071941;28;20083;-64
2022/04/19 08:15:55;;;;;;;4.88;3.33;;;24.10;61.10;;;;;;5053811;28;20493;-65
2022/04/19 08:18:21;;;;;;;6.30;3.42;;;24.10;60.70;;;;;;5071843;28;20048;-65
2022/04/19 08:20:47;;;;;;;5.25;3.35;;;24.20;60.00;;;;;;5071336;28;20059;-64
2022/04/19 08:23:13;;;;;;;6.25;3.30;;;24.00;59.60;;;;;;5070861;28;20087;-65
2022/04/19 08:25:40;;;;;;;13.35;4.43;;;24.10;59.80;;;;;;5071728;28;20145;-64
2022/04/19 08:28:07;;;;;;;6.85;2.85;;;24.20;59.30;;;;;;5071189;28;20071;-65
2022/04/19 08:30:33;;;;;;;5.80;3.00;;;24.20;58.20;;;;;;5053824;28;20532;-65
2022/04/19 08:32:59;;;;;;;3.53;2.38;;;24.10;57.30;;;;;;5069739;28;20541;-64
2022/04/19 08:35:25;;;;;;;16.40;4.07;;;24.10;55.50;;;;;;5070398;28;20140;-65
2022/04/19 08:37:52;;;;;;;4.07;2.50;;;24.30;55.50;;;;;;5069827;28;20056;-64
2022/04/19 08:40:18;;;;;;;3.90;2.13;;;24.30;55.80;;;;;;5070344;28;20060;-64
2022/04/19 08:42:45;;;;;;;3.45;2.28;;;24.30;55.80;;;;;;5070016;28;20040;-65
2022/04/19 08:45:13;;;;;;;3.67;2.10;;;24.10;54.90;;;;;;5070972;28;20048;-63
2022/04/19 08:47:42;;;;;;;3.08;1.95;;;24.00;55.40;;;;;;5053695;28;20076;-63
2022/04/19 08:50:11;;;;;;;2.58;1.42;;;24.10;55.80;;;;;;5053107;28;20074;-63
2022/04/19 08:52:38;;;;;;;5.97;1.90;;;24.20;53.50;;;;;;5069776;28;20502;-63
2022/04/19 08:57:50;;;;;;;4.40;1.80;;;23.40;53.80;;;;;;5070091;28;20044;-66
2022/04/19 09:00:16;;;;;;;1.65;1.48;;;23.20;54.50;;;;;;5070455;28;20050;-64
2022/04/19 09:02:42;;;;;;;1.77;1.50;;;23.00;54.90;;;;;;5070078;28;20041;-64
2022/04/19 09:05:21;;;;;;;4.03;1.88;;;22.90;55.10;;;;;;5070741;28;20067;-65
2022/04/19 09:07:49;;;;;;;2.45;1.70;;;22.90;55.60;;;;;;5070007;28;20391;-64
2022/04/19 09:10:32;;;;;;;3.92;1.95;;;22.90;55.80;;;;;;5068974;28;20052;-64
2022/04/19 09:13:06;;;;;;;4.13;2.17;;;23.00;56.20;;;;;;5069562;28;20150;-65
2022/04/19 09:15:42;;;;;;;3.00;2.05;;;23.40;55.70;;;;;;5053283;28;20289;-63
2022/04/19 09:18:20;;;;;;;3.30;2.10;;;23.90;56.10;;;;;;5070616;28;20045;-64
2022/04/19 09:20:50;;;;;;;4.88;2.20;;;23.90;55.50;;;;;;5070810;28;20094;-64
2022/04/19 09:23:16;;;;;;;4.28;2.25;;;23.50;56.00;;;;;;5070444;28;20056;-65
2022/04/19 09:25:44;;;;;;;3.15;1.90;;;23.50;56.30;;;;;;5070014;28;20474;-65
2022/04/19 09:28:17;;;;;;;5.72;2.40;;;23.40;56.40;;;;;;5070879;28;20351;-64
2022/04/19 09:30:44;;;;;;;7.93;2.38;;;23.40;55.90;;;;;;5071125;28;20052;-63
2022/04/19 09:33:18;;;;;;;3.15;2.28;;;23.10;56.40;;;;;;5069166;28;20048;-62
2022/04/19 09:35:53;;;;;;;3.75;2.42;;;22.50;56.70;;;;;;5070788;28;20045;-63
2022/04/19 09:38:32;;;;;;;5.00;2.60;;;21.60;57.70;;;;;;5069177;28;20052;-63
2022/04/19 09:40:58;;;;;;;4.57;2.42;;;21.00;59.30;;;;;;5070554;28;20095;-62
2022/04/19 09:43:24;;;;;;;4.93;2.83;;;20.60;59.20;;;;;;5070959;28;20076;-63
2022/04/19 09:45:54;;;;;;;5.18;2.75;;;20.20;59.90;;;;;;5052526;28;20383;-63
2022/04/19 09:48:28;;;;;;;5.53;2.75;;;19.80;61.00;;;;;;5070367;28;20498;-63
2022/04/19 09:50:58;;;;;;;5.00;2.63;;;19.40;60.60;;;;;;5069236;28;20490;-64
2022/04/19 09:53:27;;;;;;;4.15;2.15;;;19.20;61.40;;;;;;5069438;28;20048;-64
2022/04/19 09:55:54;;;;;;;3.53;2.10;;;19.20;61.50;;;;;;5070636;28;20091;-64
2022/04/19 09:58:22;;;;;;;10.55;3.40;;;19.10;62.00;;;;;;5052633;28;20048;-65
2022/04/19 10:00:48;;;;;;;4.20;2.47;;;19.00;62.40;;;;;;5051334;28;20502;-65
2022/04/19 10:08:46;;;;;;;3.10;2.10;;;18.80;63.30;;;;;;5055437;28;20048;-63
2022/04/19 10:11:13;;;;;;;3.67;2.40;;;18.80;63.00;;;;;;5069627;28;20056;-63
2022/04/19 10:13:39;;;;;;;5.43;2.97;;;18.90;63.50;;;;;;5070821;28;20044;-63
2022/04/19 10:16:15;;;;;;;4.63;2.95;;;18.90;63.50;;;;;;5070494;28;20080;-64
2022/04/19 10:18:43;;;;;;;5.63;2.90;;;18.90;64.10;;;;;;5070674;28;20090;-63
2022/04/19 10:21:10;;;;;;;4.03;2.90;;;18.80;64.30;;;;;;5070561;28;20047;-63
2022/04/19 10:23:39;;;;;;;4.88;2.97;;;18.60;64.20;;;;;;5074068;28;20074;-63
2022/04/19 10:26:24;;;;;;;6.45;2.63;;;18.40;64.30;;;;;;5073766;28;20045;-64
2022/04/19 10:28:52;;;;;;;3.97;2.50;;;18.40;65.20;;;;;;5073944;28;20421;-63
2022/04/19 10:31:37;;;;;;;6.55;2.78;;;18.30;65.30;;;;;;5073990;28;20051;-64
2022/04/19 10:34:03;;;;;;;;;;;18.30;65.00;;;;;;5056287;28;20147;-62
2022/04/19 10:36:39;;;;;;;7.80;2.58;;;18.30;64.90;;;;;;5072563;28;19979;-64
2022/04/19 10:39:11;;;;;;;5.90;2.63;;;18.20;64.50;;;;;;5073802;28;20417;-63
2022/04/19 10:41:57;;;;;;;4.72;2.50;;;18.20;64.60;;;;;;5073785;28;20127;-63
2022/04/19 10:44:28;;;;;;;6.32;2.90;;;18.10;64.80;;;;;;5073465;28;20044;-63
2022/04/19 10:47:16;;;;;;;5.53;2.70;;;18.10;65.40;;;;;;5072828;28;20109;-64
2022/04/19 10:49:59;;;;;;;5.50;2.83;;;18.20;65.50;;;;;;5072789;28;20060;-63
2022/04/19 10:52:38;;;;;;;4.00;2.83;;;18.20;65.60;;;;;;5072196;28;20044;-63
2022/04/19 10:55:10;;;;;;;4.78;2.95;;;18.20;65.50;;;;;;5072269;28;20048;-67
2022/04/19 11:00:42;;;;;;;3.50;2.42;;;18.10;64.80;;;;;;5073281;28;20075;-62
2022/04/19 11:03:40;;;;;;;7.57;2.92;;;17.90;65.10;;;;;;5073317;28;20181;-62
2022/04/19 11:06:28;;;;;;;4.80;2.80;;;17.80;65.70;;;;;;5072325;28;20048;-64
2022/04/19 11:09:08;;;;;;;4.25;2.88;;;17.70;66.40;;;;;;5073863;28;20079;-62
2022/04/19 11:11:50;;;;;;;4.30;2.67;;;17.60;66.30;;;;;;5073338;28;20055;-65
2022/04/19 11:14:20;;;;;;;3.17;2.28;;;17.60;66.10;;;;;;5073210;28;20452;-64
2022/04/19 11:16:52;;;;;;;4.43;2.78;;;17.60;66.10;;;;;;5073359;28;20048;-64
2022/04/19 11:19:21;;;;;;;3.10;1.90;;;17.70;66.30;;;;;;5072353;28;20036;-64
2022/04/19 11:21:58;;;;;;;6.80;2.63;;;17.70;65.60;;;;;;5072921;28;20470;-63
2022/04/19 11:24:58;;;;;;;4.13;2.63;;;17.70;65.50;;;;;;5071083;28;20045;-63
2022/04/19 11:27:44;;;;;;;5.03;2.42;;;17.60;65.40;;;;;;5072209;28;20040;-63
2022/04/19 11:30:13;;;;;;;4.72;3.00;;;17.60;65.80;;;;;;5070162;28;20394;-63
2022/04/19 11:32:39;;;;;;;7.03;3.10;;;17.50;66.30;;;;;;5069997;28;20040;-64
2022/04/19 11:35:05;;;;;;;5.40;3.10;;;17.50;66.90;;;;;;5071197;28;20131;-62
2022/04/19 11:37:32;;;;;;;4.53;2.92;;;17.40;66.90;;;;;;5054252;28;20573;-64
2022/04/19 11:48:33;;;;;;;4.95;3.67;;;17.50;68.30;;;;;;5049972;28;20394;-62
2022/04/19 11:51:13;;;;;;;4.63;3.60;;;17.60;68.50;;;;;;5072400;28;20119;-63
2022/04/19 11:53:39;;;;;;;5.10;3.40;;;17.60;67.90;;;;;;5037263;28;20072;-62
2022/04/19 11:56:06;;;;;;;4.63;3.13;;;17.60;68.20;;;;;;5054215;28;20052;-64
2022/04/19 11:58:33;;;;;;;4.97;3.28;;;17.70;68.30;;;;;;5070659;28;20246;-63
2022/04/19 12:01:01;;;;;;;3.50;2.60;;;17.80;69.00;;;;;;5071861;28;20095;-63
2022/04/19 12:03:32;;;;;;;4.43;2.53;;;17.80;67.50;;;;;;5071875;28;20370;-62
2022/04/19 12:06:14;;;;;;;4.07;2.55;;;17.70;67.30;;;;;;5070722;28;20048;-64
2022/04/19 12:08:43;;;;;;;6.60;2.80;;;17.70;67.50;;;;;;5054072;28;20087;-62
2022/04/19 12:11:12;;;;;;;5.35;2.90;;;17.50;67.50;;;;;;5071916;28;20119;-63
2022/04/19 12:13:41;;;;;;;4.93;2.95;;;17.50;68.00;;;;;;5071257;28;20128;-63
2022/04/19 12:16:25;;;;;;;5.28;2.90;;;17.60;68.30;;;;;;5070341;28;20087;-64
2022/04/19 12:18:53;;;;;;;5.23;2.73;;;17.60;68.10;;;;;;5071721;28;20493;-64
2022/04/19 12:21:38;;;;;;;3.72;2.47;;;17.70;68.70;;;;;;5071238;28;20041;-63
2022/04/19 12:24:19;;;;;;;3.53;2.58;;;17.90;68.20;;;;;;5071670;28;20401;-64
2022/04/19 12:27:02;;;;;;;5.70;2.92;;;17.90;67.80;;;;;;5069931;28;20131;-63
2022/04/19 12:29:28;;;;;;;6.10;2.47;;;17.80;67.90;;;;;;5070698;28;20055;-63
2022/04/19 12:31:57;;;;;;;5.47;2.65;;;17.80;68.00;;;;;;5070489;28;20048;-64
2022/04/19 12:34:32;;;;;;;4.10;2.50;;;17.70;67.20;;;;;;5071316;28;20055;-63
2022/04/19 12:37:08;;;;;;;3.83;2.40;;;17.60;67.10;;;;;;5071338;28;20138;-64
2022/04/19 12:39:34;;;;;;;3.55;2.30;;;17.60;67.50;;;;;;5069920;28;20095;-62
2022/04/19 12:42:11;;;;;;;4.15;2.47;;;17.50;67.90;;;;;;5071623;28;20037;-62
2022/04/19 12:44:39;;;;;;;4.03;2.58;;;17.50;68.10;;;;;;5069478;28;20052;-63
2022/04/19 12:47:14;;;;;;;3.90;2.50;;;17.60;67.50;;;;;;5070835;28;20119;-64
2022/04/19 12:49:46;;;;;;;5.60;2.30;;;17.60;67.90;;;;;;5036464;28;20044;-62
2022/04/19 12:52:13;;;;;;;3.20;2.40;;;17.50;68.30;;;;;;5037031;28;20044;-62
2022/04/19 12:54:44;;;;;;;3.83;2.58;;;17.50;68.40;;;;;;5070061;28;20403;-64
2022/04/19 12:57:23;;;;;;;3.75;2.45;;;17.40;68.40;;;;;;5070998;28;20149;-64
2022/04/19 12:59:50;;;;;;;3.80;2.53;;;17.40;69.00;;;;;;5071153;28;20040;-63
2022/04/19 13:02:18;;;;;;;4.85;2.60;;;17.30;68.30;;;;;;5070691;28;20040;-63
2022/04/19 13:04:48;;;;;;;5.65;2.83;;;17.30;68.40;;;;;;5069464;28;20131;-66
2022/04/19 13:12:43;;;;;;;4.10;2.90;;;17.40;69.50;;;;;;5070682;28;19971;-63
2022/04/19 13:15:10;;;;;;;8.88;2.60;;;17.40;69.40;;;;;;5070800;28;20498;-67
2022/04/19 13:17:39;;;;;;;3.70;2.42;;;17.50;70.00;;;;;;5070776;28;20044;-64
2022/04/19 13:20:06;;;;;;;6.40;3.08;;;17.60;68.90;;;;;;5071074;28;20498;-64
2022/04/19 13:22:32;;;;;;;5.00;3.20;;;17.60;68.60;;;;;;5069280;28;20044;-65
2022/04/19 13:24:59;;;;;;;4.85;2.97;;;17.60;68.20;;;;;;5069728;28;20124;-66
2022/04/19 13:27:26;;;;;;;4.95;2.60;;;17.60;68.20;;;;;;5069800;28;20402;-67
2022/04/19 13:29:52;;;;;;;5.70;2.95;;;17.50;67.60;;;;;;5069723;28;20063;-65
2022/04/19 13:32:20;;;;;;;5.45;3.08;;;17.40;68.10;;;;;;5069640;28;20044;-64
2022/04/19 13:34:46;;;;;;;6.40;3.00;;;17.50;68.20;;;;;;5069494;28;20076;-65
2022/04/19 13:37:13;;;;;;;6.03;3.03;;;17.40;68.40;;;;;;5070250;28;20045;-63